createdAt,value
2019-02-21T00:01:18.706Z,16.63
2019-02-21T00:03:48.165Z,17.40
2019-02-21T00:09:07.430Z,17.63
2019-02-21T00:11:37.594Z,17.63
2019-02-21T00:44:15.152Z,18.00
2019-02-21T00:46:44.321Z,20.07
2019-02-21T00:49:13.623Z,22.77
2019-02-21T00:51:43.075Z,22.57
2019-02-21T00:54:13.042Z,20.53
2019-02-21T00:56:42.678Z,19.77
2019-02-21T01:16:00.182Z,22.03
2019-02-21T01:18:29.541Z,21.70
2019-02-21T01:20:58.924Z,21.00
2019-02-21T01:23:28.202Z,21.60
2019-02-21T01:25:57.660Z,18.73
2019-02-21T01:28:26.892Z,18.10
2019-02-21T01:30:57.210Z,19.57
2019-02-21T01:33:27.303Z,20.93
2019-02-21T01:35:56.512Z,23.00
2019-02-21T02:19:46.019Z,19.43
2019-02-21T02:22:15.198Z,22.40
2019-02-21T02:24:45.245Z,18.90
2019-02-21T02:27:14.702Z,19.00
2019-02-21T02:29:44.096Z,19.23
2019-02-21T02:32:13.485Z,19.87
2019-02-21T02:34:43.217Z,18.27
2019-02-21T02:37:12.581Z,21.83
2019-02-21T02:44:56.605Z,17.03
2019-02-21T02:47:25.785Z,18.87
2019-02-21T02:49:55.013Z,19.23
2019-02-21T02:52:24.688Z,22.20
2019-02-21T02:54:54.065Z,18.03
2019-02-21T03:08:21.102Z,19.47
2019-02-21T03:10:50.293Z,20.77
2019-02-21T03:13:19.516Z,18.67
2019-02-21T03:15:48.716Z,20.90
2019-02-21T03:18:18.202Z,18.30
2019-02-21T03:20:47.483Z,18.93
2019-02-21T03:23:16.978Z,19.62
2019-02-21T03:25:46.476Z,22.23
2019-02-21T03:28:15.711Z,20.43
2019-02-21T03:30:44.955Z,21.27
2019-02-21T03:33:14.202Z,20.07
2019-02-21T03:35:43.674Z,20.60
2019-02-21T03:38:12.887Z,23.10
2019-02-21T03:40:42.431Z,22.33
2019-02-21T03:43:11.638Z,19.07
2019-02-21T03:45:40.838Z,19.20
2019-02-21T03:48:10.361Z,22.07
2019-02-21T03:50:39.594Z,20.53
2019-02-21T03:53:08.817Z,22.60
2019-02-21T03:55:38.030Z,20.40
2019-02-21T03:58:07.247Z,22.17
2019-02-21T04:00:36.772Z,21.50
2019-02-21T04:03:05.980Z,21.40
2019-02-21T04:05:35.478Z,23.97
2019-02-21T04:08:04.710Z,21.73
2019-02-21T04:10:34.239Z,21.53
2019-02-21T04:13:03.454Z,22.37
2019-02-21T04:15:32.664Z,24.67
2019-02-21T04:18:01.872Z,22.60
2019-02-21T04:20:31.455Z,23.30
2019-02-21T04:23:00.659Z,24.07
2019-02-21T04:25:29.925Z,21.00
2019-02-21T04:27:59.377Z,21.80
2019-02-21T04:30:28.617Z,23.23
2019-02-21T04:32:57.807Z,25.13
2019-02-21T04:35:27.312Z,22.53
2019-02-21T04:37:56.536Z,25.97
2019-02-21T04:40:26.119Z,24.30
2019-02-21T04:42:55.975Z,26.40
2019-02-21T04:45:25.219Z,25.37
2019-02-21T04:47:54.426Z,27.23
2019-02-21T04:50:24.197Z,25.00
2019-02-21T04:52:53.884Z,24.87
2019-02-21T04:55:23.142Z,24.17
2019-02-21T04:57:52.455Z,26.07
2019-02-21T05:00:22.671Z,28.37
2019-02-21T05:02:52.576Z,24.03
2019-02-21T05:05:21.985Z,26.87
2019-02-21T05:07:51.891Z,27.63
2019-02-21T05:10:21.258Z,28.27
2019-02-21T05:12:50.584Z,29.67
2019-02-21T05:15:19.820Z,25.13
2019-02-21T05:17:49.062Z,29.57
2019-02-21T05:20:18.296Z,29.07
2019-02-21T05:22:47.803Z,30.53
2019-02-21T05:25:17.100Z,30.80
2019-02-21T05:30:43.639Z,31.17
2019-02-21T05:33:31.773Z,27.20
2019-02-21T06:08:32.621Z,27.30
2019-02-21T06:43:57.059Z,30.20
2019-02-21T07:48:20.246Z,31.27
2019-02-21T08:04:31.819Z,28.67
2019-02-21T08:07:01.094Z,25.53
2019-02-21T08:09:30.333Z,25.03
2019-02-21T08:11:59.569Z,24.73
2019-02-21T08:14:29.066Z,24.07
2019-02-21T08:16:58.787Z,25.10
2019-02-21T08:19:28.199Z,27.53
2019-02-21T08:22:00.245Z,27.90
2019-02-21T08:40:53.590Z,28.70
2019-02-21T08:43:23.608Z,27.23
2019-02-21T08:45:52.857Z,29.37
2019-02-21T08:48:22.129Z,27.00
2019-02-21T08:50:51.671Z,26.97
2019-02-21T08:53:20.918Z,28.30
2019-02-21T08:55:50.294Z,28.70
2019-02-21T08:58:19.796Z,29.13
2019-02-21T09:01:28.805Z,34.03
2019-02-21T09:04:09.594Z,25.63
2019-02-21T09:06:29.338Z,33.73
2019-02-21T09:08:59.064Z,26.43
2019-02-21T09:11:28.387Z,28.13
2019-02-21T09:16:32.369Z,30.57
2019-02-21T09:19:01.619Z,28.10
2019-02-21T09:21:30.856Z,32.87
2019-02-21T09:24:00.729Z,30.57
2019-02-21T09:26:30.364Z,27.43
2019-02-21T09:29:00.205Z,28.33
2019-02-21T09:31:30.198Z,32.37
2019-02-21T09:33:59.598Z,29.53
2019-02-21T09:36:28.877Z,30.67
2019-02-21T09:41:33.008Z,25.90
2019-02-21T09:44:02.950Z,27.03
2019-02-21T09:46:32.721Z,27.73
2019-02-21T09:49:03.057Z,28.73
2019-02-21T09:51:36.516Z,28.93
2019-02-21T10:26:09.395Z,25.00
2019-02-21T10:28:38.867Z,27.33
2019-02-21T10:31:09.134Z,26.50
2019-02-21T10:33:46.580Z,30.10
2019-02-21T10:36:10.309Z,27.83
2019-02-21T10:38:39.776Z,28.87
2019-02-21T10:41:09.689Z,29.87
2019-02-21T10:43:39.542Z,27.97
2019-02-21T10:46:09.064Z,28.70
2019-02-21T10:48:38.827Z,31.13
2019-02-21T10:51:22.338Z,27.80
2019-02-21T11:17:57.338Z,24.83
2019-02-21T11:20:26.822Z,26.13
2019-02-21T11:22:56.375Z,26.07
2019-02-21T11:25:26.275Z,25.70
2019-02-21T11:27:56.410Z,27.90
2019-02-21T11:30:25.605Z,23.53
2019-02-21T11:32:55.143Z,30.50
2019-02-21T11:35:24.448Z,25.60
2019-02-21T11:37:54.234Z,25.80
2019-02-21T11:41:03.825Z,24.17
2019-02-21T11:43:33.318Z,26.60
2019-02-21T11:48:51.230Z,27.93
2019-02-21T11:51:21.248Z,26.40
2019-02-21T11:53:50.893Z,24.70
2019-02-21T11:56:20.542Z,21.63
2019-02-21T11:58:50.048Z,23.23
2019-02-21T12:01:19.972Z,24.87
2019-02-21T12:03:49.505Z,20.73
2019-02-21T12:06:19.282Z,24.63
2019-02-21T12:08:48.846Z,23.17
2019-02-21T12:11:18.367Z,22.53
2019-02-21T12:13:47.913Z,24.63
2019-02-21T12:16:17.106Z,22.27
2019-02-21T12:18:46.703Z,21.50
2019-02-21T12:21:16.824Z,16.60
2019-02-21T12:23:46.655Z,21.67
2019-02-21T12:26:35.140Z,18.87
2019-02-21T12:29:04.845Z,21.83
2019-02-21T12:31:34.582Z,21.03
2019-02-21T12:34:04.140Z,21.63
2019-02-21T12:36:34.038Z,14.67
2019-02-21T12:41:59.252Z,17.40
2019-02-21T12:44:29.130Z,15.47
2019-02-21T12:46:58.521Z,17.43
2019-02-21T12:49:28.229Z,15.23
2019-02-21T12:51:57.732Z,20.03
2019-02-21T12:54:27.258Z,17.33
2019-02-21T12:56:56.734Z,18.70
2019-02-21T12:59:25.994Z,17.70
2019-02-21T13:01:55.503Z,18.07
2019-02-21T13:04:25.025Z,19.37
2019-02-21T13:06:54.308Z,18.17
2019-02-21T13:09:24.229Z,21.20
2019-02-21T13:11:53.852Z,19.37
2019-02-21T13:14:23.188Z,22.70
2019-02-21T13:16:52.748Z,20.30
2019-02-21T13:19:22.299Z,19.83
2019-02-21T13:21:51.848Z,17.13
2019-02-21T13:24:21.477Z,18.63
2019-02-21T13:26:51.389Z,19.87
2019-02-21T13:29:20.631Z,20.53
2019-02-21T13:31:50.733Z,17.30
2019-02-21T13:34:20.805Z,19.20
2019-02-21T13:36:50.741Z,18.93
2019-02-21T13:39:21.105Z,20.47
2019-02-21T13:41:50.455Z,18.93
2019-02-21T13:44:19.721Z,19.30
2019-02-21T13:46:48.941Z,18.63
2019-02-21T13:49:37.389Z,18.83
2019-02-21T13:52:07.412Z,21.43
2019-02-21T13:54:36.919Z,27.93
2019-02-21T13:57:25.086Z,23.43
2019-02-21T13:59:54.894Z,29.30
2019-02-21T14:02:24.530Z,25.40
2019-02-21T14:04:54.877Z,23.03
2019-02-21T14:07:24.774Z,24.17
2019-02-21T14:09:54.089Z,21.97
2019-02-21T14:12:26.287Z,23.57
2019-02-21T14:14:55.220Z,23.77
2019-02-21T14:17:24.756Z,21.40
2019-02-21T14:19:54.507Z,21.43
2019-02-21T14:22:24.039Z,22.33
2019-02-21T14:24:56.249Z,24.57
2019-02-21T14:27:26.200Z,23.37
2019-02-21T14:29:55.826Z,26.97
2019-02-21T14:32:25.065Z,24.83
2019-02-21T14:34:55.002Z,23.03
2019-02-21T14:37:24.215Z,20.60
2019-02-21T14:39:54.207Z,23.17
2019-02-21T14:42:23.738Z,23.77
2019-02-21T14:44:56.411Z,22.97
2019-02-21T14:47:25.800Z,25.27
2019-02-21T14:49:55.330Z,25.63
2019-02-21T14:52:24.744Z,29.10
2019-02-21T14:54:54.639Z,24.33
2019-02-21T14:57:24.365Z,27.33
2019-02-21T14:59:54.906Z,22.27
2019-02-21T15:02:25.149Z,29.37
2019-02-21T15:04:57.916Z,25.37
2019-02-21T15:07:29.956Z,29.30
2019-02-21T15:18:22.700Z,28.57
2019-02-21T15:20:52.878Z,24.80
2019-02-21T15:23:24.847Z,24.97
2019-02-21T15:25:56.982Z,60.80
2019-02-21T15:51:14.588Z,30.53
2019-02-21T15:53:44.554Z,28.37
2019-02-21T15:56:16.918Z,29.00
2019-02-21T15:58:46.878Z,26.20
2019-02-21T16:01:16.128Z,24.20
2019-02-21T16:03:45.701Z,24.93
2019-02-21T16:06:15.354Z,25.30
2019-02-21T16:08:45.389Z,23.33
2019-02-21T16:11:16.715Z,24.57
2019-02-21T16:13:46.846Z,28.77
2019-02-21T16:18:52.995Z,35.20
2019-02-21T16:21:22.542Z,29.37
2019-02-21T16:23:52.731Z,31.17
2019-02-21T16:26:22.670Z,24.77
2019-02-21T16:28:52.479Z,25.93
2019-02-21T16:31:22.502Z,27.67
2019-02-21T16:33:52.543Z,28.63
2019-02-21T16:36:22.105Z,26.93
2019-02-21T16:38:51.934Z,32.93
2019-02-21T16:41:21.882Z,32.43
2019-02-21T16:43:51.726Z,33.70
2019-02-21T16:46:21.623Z,28.10
2019-02-21T16:48:51.135Z,26.23
2019-02-21T16:51:40.341Z,27.43
2019-02-21T16:54:10.363Z,26.00
2019-02-21T16:56:39.918Z,29.67
2019-02-21T16:59:09.381Z,28.07
2019-02-21T17:01:38.960Z,28.63
2019-02-21T17:04:08.452Z,28.00
2019-02-21T17:06:38.001Z,25.53
2019-02-21T17:09:47.346Z,25.07
2019-02-21T17:12:17.176Z,24.67
2019-02-21T17:14:47.098Z,25.97
2019-02-21T17:17:16.350Z,28.63
2019-02-21T17:22:34.341Z,24.70
2019-02-21T17:25:04.742Z,25.00
2019-02-21T17:27:34.516Z,29.17
2019-02-21T17:33:13.502Z,26.27
2019-02-21T17:35:42.713Z,26.23
2019-02-21T17:38:14.380Z,29.63
2019-02-21T17:40:43.248Z,29.77
2019-02-21T17:43:13.056Z,32.60
2019-02-21T17:45:43.108Z,29.13
2019-02-21T17:48:12.763Z,36.57
2019-02-21T17:50:42.363Z,32.47
2019-02-21T17:53:11.618Z,29.53
2019-02-21T17:55:41.205Z,30.47
2019-02-21T17:58:11.336Z,33.43
2019-02-21T18:00:40.895Z,28.37
2019-02-21T18:03:10.135Z,33.00
2019-02-21T18:05:39.722Z,29.07
2019-02-21T18:08:09.396Z,32.73
2019-02-21T18:10:38.595Z,45.07
2019-02-21T18:13:08.177Z,49.33
2019-02-21T18:15:37.544Z,47.60
2019-02-21T18:18:06.804Z,56.53
2019-02-21T18:20:36.055Z,99.33
2019-02-21T18:23:05.301Z,45.20
2019-02-21T18:25:37.983Z,82.10
2019-02-21T18:28:07.990Z,43.10
2019-02-21T18:30:37.250Z,60.87
2019-02-21T18:33:06.750Z,39.13
2019-02-21T18:35:37.036Z,40.70
2019-02-21T18:38:06.672Z,36.13
2019-02-21T18:40:36.330Z,35.57
2019-02-21T18:43:06.413Z,34.47
2019-02-21T18:45:35.973Z,40.03
2019-02-21T18:48:05.479Z,37.33
2019-02-21T18:50:38.462Z,41.33
2019-02-21T18:53:06.712Z,38.53
2019-02-21T18:55:36.027Z,41.80
2019-02-21T18:58:05.525Z,42.67
2019-02-21T19:00:35.060Z,40.63
2019-02-21T19:03:04.320Z,39.43
2019-02-21T19:05:36.204Z,37.47
2019-02-21T19:08:05.663Z,38.90
2019-02-21T19:10:36.158Z,37.13
2019-02-21T19:13:07.644Z,38.30
2019-02-21T19:15:56.110Z,35.90
2019-02-21T19:18:25.938Z,37.77
2019-02-21T19:20:56.190Z,42.93
2019-02-21T19:23:26.393Z,37.37
2019-02-21T19:25:55.752Z,35.40
2019-02-21T19:28:25.104Z,34.50
2019-02-21T19:30:59.028Z,35.37
2019-02-21T19:33:29.099Z,34.27
2019-02-21T19:35:58.819Z,33.90
2019-02-21T19:38:28.867Z,35.07
2019-02-21T19:40:59.167Z,35.93
2019-02-21T19:44:09.100Z,34.23
2019-02-21T19:46:39.020Z,36.60
2019-02-21T19:49:08.277Z,33.10
2019-02-21T19:51:37.861Z,34.73
2019-02-21T19:54:07.467Z,34.43
2019-02-21T19:56:37.150Z,34.73
2019-02-21T19:59:06.538Z,38.33
2019-02-21T20:01:35.897Z,39.43
2019-02-21T20:04:05.286Z,37.60
2019-02-21T20:06:35.731Z,37.07
2019-02-21T20:09:05.905Z,39.43
2019-02-21T20:11:36.088Z,39.03
2019-02-21T20:14:07.389Z,34.20
2019-02-21T20:16:37.218Z,37.47
2019-02-21T20:19:06.989Z,32.03
2019-02-21T20:21:36.285Z,35.27
2019-02-21T20:24:05.715Z,32.30
2019-02-21T20:26:35.977Z,35.57
2019-02-21T20:29:05.278Z,32.13
2019-02-21T20:34:09.877Z,36.30
2019-02-21T20:36:50.455Z,38.33
2019-02-21T20:39:11.208Z,34.13
2019-02-21T20:41:40.643Z,36.07
2019-02-21T20:44:09.920Z,35.10
2019-02-21T20:46:39.947Z,36.17
2019-02-21T20:49:29.182Z,35.67
2019-02-21T20:51:58.540Z,38.00
2019-02-21T20:54:28.195Z,36.43
2019-02-21T20:56:58.683Z,37.27
2019-02-21T20:59:28.961Z,34.57
2019-02-21T21:01:58.270Z,36.00
2019-02-21T21:04:27.603Z,37.80
2019-02-21T21:06:57.613Z,37.93
2019-02-21T21:09:27.435Z,41.27
2019-02-21T21:11:57.198Z,38.47
2019-02-21T21:14:26.797Z,36.87
2019-02-21T21:16:56.479Z,37.03
2019-02-21T21:19:26.720Z,38.17
2019-02-21T21:21:56.080Z,38.70
2019-02-21T21:24:25.453Z,38.90
2019-02-21T21:26:55.088Z,38.33
2019-02-21T21:29:24.784Z,37.50
2019-02-21T21:31:54.520Z,43.67
2019-02-21T21:34:24.068Z,46.03
2019-02-21T21:36:53.462Z,48.97
2019-02-21T21:39:23.108Z,45.00
2019-02-21T21:41:52.736Z,43.10
2019-02-21T21:44:22.360Z,47.30
2019-02-21T21:46:52.022Z,50.43
2019-02-21T21:49:21.685Z,41.20
2019-02-21T21:51:55.231Z,41.43
2019-02-21T21:54:25.914Z,38.20
2019-02-21T21:57:35.811Z,42.00
2019-02-21T22:00:06.955Z,43.10
2019-02-21T22:05:12.411Z,42.93
2019-02-21T22:07:41.918Z,44.97
2019-02-21T22:10:12.112Z,47.93
2019-02-21T22:12:41.615Z,45.57
2019-02-21T22:15:12.184Z,42.83
2019-02-21T22:17:42.279Z,42.77
2019-02-21T22:22:41.278Z,42.60
2019-02-21T22:25:12.018Z,40.93
2019-02-21T22:27:41.538Z,43.93
2019-02-21T22:30:12.789Z,44.03
2019-02-21T22:33:01.090Z,46.83
2019-02-21T22:35:30.291Z,44.70
2019-02-21T22:37:59.816Z,43.67
2019-02-21T22:40:29.070Z,41.50
2019-02-21T22:42:58.680Z,46.07
2019-02-21T22:45:27.894Z,47.83
2019-02-21T22:47:58.163Z,43.13
2019-02-21T22:50:28.265Z,42.73
2019-02-21T22:52:58.053Z,41.50
2019-02-21T22:55:28.108Z,42.20
2019-02-21T22:57:58.857Z,45.70
2019-02-21T23:01:07.196Z,46.43
2019-02-21T23:07:30.006Z,44.67
2019-02-21T23:09:59.512Z,43.03
2019-02-21T23:12:28.816Z,43.53
2019-02-21T23:14:58.649Z,44.43
2019-02-21T23:17:28.132Z,42.37
2019-02-21T23:19:57.705Z,45.57
2019-02-21T23:22:27.512Z,46.13
2019-02-21T23:24:57.417Z,44.13
2019-02-21T23:27:27.343Z,42.70
2019-02-21T23:29:56.891Z,43.23
2019-02-21T23:32:26.377Z,42.57
2019-02-21T23:37:52.263Z,42.63
2019-02-21T23:43:16.899Z,48.87
2019-02-21T23:45:46.156Z,46.57
2019-02-21T23:48:15.980Z,47.63
2019-02-21T23:50:45.757Z,47.73
2019-02-21T23:53:14.991Z,41.70
2019-02-21T23:55:45.062Z,43.13
2019-02-21T23:58:14.567Z,46.57
